sensor_id;sensor_type;location;lat;lon;timestamp;temperature;humidity
14775;DHT22;7479;47.042;15.160;2022-09-03T05:59:02;13.20;99.90
14775;DHT22;7479;47.042;15.160;2022-09-03T06:03:59;13.30;99.90
14775;DHT22;7479;47.042;15.160;2022-09-03T06:08:53;13.50;99.90
14775;DHT22;7479;47.042;15.160;2022-09-03T06:28:57;14.40;99.90
14775;DHT22;7479;47.042;15.160;2022-09-03T06:33:51;14.70;99.90
14775;DHT22;7479;47.042;15.160;2022-09-03T06:38:46;14.80;99.90
14775;DHT22;7479;47.042;15.160;2022-09-03T06:56:52;15.50;99.90
14775;DHT22;7479;47.042;15.160;2022-09-03T07:01:45;15.50;99.90
14775;DHT22;7479;47.042;15.160;2022-09-03T07:06:40;15.70;99.90
14775;DHT22;7479;47.042;15.160;2022-09-03T07:25:53;16.60;99.90
14775;DHT22;7479;47.042;15.160;2022-09-03T07:30:47;16.80;99.90
14775;DHT22;7479;47.042;15.160;2022-09-03T07:35:41;16.90;99.90
14775;DHT22;7479;47.042;15.160;2022-09-03T07:40:34;17.10;99.90
14775;DHT22;7479;47.042;15.160;2022-09-03T07:59:50;17.80;99.90
14775;DHT22;7479;47.042;15.160;2022-09-03T08:04:44;17.90;99.90
14775;DHT22;7479;47.042;15.160;2022-09-03T08:09:38;18.20;99.90
14775;DHT22;7479;47.042;15.160;2022-09-03T08:14:31;18.40;99.90
14775;DHT22;7479;47.042;15.160;2022-09-03T08:19:26;18.60;99.90
14775;DHT22;7479;47.042;15.160;2022-09-03T08:24:20;18.80;99.90
14775;DHT22;7479;47.042;15.160;2022-09-03T08:29:15;19.10;99.90
14775;DHT22;7479;47.042;15.160;2022-09-03T08:34:09;19.10;99.90
14775;DHT22;7479;47.042;15.160;2022-09-03T08:39:06;19.30;99.90
14775;DHT22;7479;47.042;15.160;2022-09-03T08:44:12;19.60;99.90
14775;DHT22;7479;47.042;15.160;2022-09-03T08:49:11;19.80;99.90
14775;DHT22;7479;47.042;15.160;2022-09-03T08:54:08;20.10;99.90
14775;DHT22;7479;47.042;15.160;2022-09-03T08:59:02;20.20;99.90
14775;DHT22;7479;47.042;15.160;2022-09-03T09:04:04;20.40;99.90
14775;DHT22;7479;47.042;15.160;2022-09-03T09:09:08;20.60;99.90
14775;DHT22;7479;47.042;15.160;2022-09-03T09:14:12;20.80;99.90
14775;DHT22;7479;47.042;15.160;2022-09-03T09:19:19;21.10;99.90
14775;DHT22;7479;47.042;15.160;2022-09-03T09:24:21;21.30;99.90
14775;DHT22;7479;47.042;15.160;2022-09-03T09:29:15;21.50;99.90
14775;DHT22;7479;47.042;15.160;2022-09-03T09:34:09;21.60;99.90
14775;DHT22;7479;47.042;15.160;2022-09-03T09:39:08;21.80;99.90
14775;DHT22;7479;47.042;15.160;2022-09-03T09:44:03;22.10;99.90
14775;DHT22;7479;47.042;15.160;2022-09-03T09:48:58;22.50;99.90
14775;DHT22;7479;47.042;15.160;2022-09-03T09:54:03;22.80;98.80
14775;DHT22;7479;47.042;15.160;2022-09-03T09:59:06;22.70;98.80
14775;DHT22;7479;47.042;15.160;2022-09-03T10:04:09;22.50;98.80
14775;DHT22;7479;47.042;15.160;2022-09-03T10:09:08;22.50;98.80
14775;DHT22;7479;47.042;15.160;2022-09-03T10:14:02;22.90;98.50
14775;DHT22;7479;47.042;15.160;2022-09-03T10:19:05;23.30;97.60
14775;DHT22;7479;47.042;15.160;2022-09-03T10:24:13;23.90;96.70
14775;DHT22;7479;47.042;15.160;2022-09-03T10:29:08;24.40;95.10
14775;DHT22;7479;47.042;15.160;2022-09-03T10:34:09;24.70;94.10
14775;DHT22;7479;47.042;15.160;2022-09-03T10:39:11;24.50;94.20
14775;DHT22;7479;47.042;15.160;2022-09-03T10:44:24;24.80;94.00
14775;DHT22;7479;47.042;15.160;2022-09-03T10:49:36;25.00;93.10
14775;DHT22;7479;47.042;15.160;2022-09-03T10:54:48;25.20;92.70
14775;DHT22;7479;47.042;15.160;2022-09-03T10:59:57;26.00;91.90
14775;DHT22;7479;47.042;15.160;2022-09-03T11:04:59;26.70;91.60
14775;DHT22;7479;47.042;15.160;2022-09-03T11:09:58;27.00;90.50
14775;DHT22;7479;47.042;15.160;2022-09-03T11:14:58;27.20;90.10
14775;DHT22;7479;47.042;15.160;2022-09-03T11:20:05;27.40;88.60
14775;DHT22;7479;47.042;15.160;2022-09-03T11:25:02;27.30;87.30
14775;DHT22;7479;47.042;15.160;2022-09-03T11:29:59;27.40;87.70
14775;DHT22;7479;47.042;15.160;2022-09-03T11:34:54;27.60;87.40
14775;DHT22;7479;47.042;15.160;2022-09-03T11:40:02;27.80;86.30
14775;DHT22;7479;47.042;15.160;2022-09-03T11:45:11;28.00;85.30
14775;DHT22;7479;47.042;15.160;2022-09-03T11:50:08;27.50;86.00
14775;DHT22;7479;47.042;15.160;2022-09-03T11:55:10;26.80;87.80
14775;DHT22;7479;47.042;15.160;2022-09-03T12:00:08;27.50;86.00
14775;DHT22;7479;47.042;15.160;2022-09-03T12:05:24;28.00;84.20
14775;DHT22;7479;47.042;15.160;2022-09-03T12:10:29;28.50;80.90
14775;DHT22;7479;47.042;15.160;2022-09-03T12:15:43;28.70;78.70
14775;DHT22;7479;47.042;15.160;2022-09-03T12:20:42;28.90;78.00
14775;DHT22;7479;47.042;15.160;2022-09-03T12:25:42;29.00;75.90
14775;DHT22;7479;47.042;15.160;2022-09-03T12:30:38;29.20;77.50
14775;DHT22;7479;47.042;15.160;2022-09-03T12:35:32;29.30;77.10
14775;DHT22;7479;47.042;15.160;2022-09-03T12:40:48;28.70;78.90
14775;DHT22;7479;47.042;15.160;2022-09-03T12:46:01;28.70;80.80
14775;DHT22;7479;47.042;15.160;2022-09-03T12:51:04;28.60;81.20
14775;DHT22;7479;47.042;15.160;2022-09-03T12:56:20;28.90;81.60
14775;DHT22;7479;47.042;15.160;2022-09-03T13:01:21;29.30;78.60
14775;DHT22;7479;47.042;15.160;2022-09-03T13:06:20;28.80;81.00
14775;DHT22;7479;47.042;15.160;2022-09-03T13:11:16;29.20;80.70
14775;DHT22;7479;47.042;15.160;2022-09-03T13:16:49;29.80;79.00
14775;DHT22;7479;47.042;15.160;2022-09-03T13:21:49;30.10;77.40
14775;DHT22;7479;47.042;15.160;2022-09-03T13:26:58;30.40;78.50
14775;DHT22;7479;47.042;15.160;2022-09-03T13:32:01;30.40;76.80
14775;DHT22;7479;47.042;15.160;2022-09-03T13:37:01;30.40;75.70
14775;DHT22;7479;47.042;15.160;2022-09-03T13:42:04;30.50;76.50
14775;DHT22;7479;47.042;15.160;2022-09-03T13:47:09;30.20;75.50
14775;DHT22;7479;47.042;15.160;2022-09-03T13:52:12;29.60;77.30
14775;DHT22;7479;47.042;15.160;2022-09-03T13:57:25;29.10;78.90
14775;DHT22;7479;47.042;15.160;2022-09-03T14:02:35;29.60;77.80
14775;DHT22;7479;47.042;15.160;2022-09-03T14:07:46;29.80;76.90
14775;DHT22;7479;47.042;15.160;2022-09-03T14:12:43;29.50;77.10
14775;DHT22;7479;47.042;15.160;2022-09-03T14:17:46;29.40;77.60
14775;DHT22;7479;47.042;15.160;2022-09-03T14:22:49;29.40;76.70
14775;DHT22;7479;47.042;15.160;2022-09-03T14:27:44;29.00;78.90
14775;DHT22;7479;47.042;15.160;2022-09-03T14:32:47;28.50;80.30
14775;DHT22;7479;47.042;15.160;2022-09-03T14:43:46;27.60;82.90
14775;DHT22;7479;47.042;15.160;2022-09-03T14:54:47;27.20;85.30
14775;DHT22;7479;47.042;15.160;2022-09-03T15:00:04;27.10;84.70
14775;DHT22;7479;47.042;15.160;2022-09-03T15:05:14;27.10;85.20
14775;DHT22;7479;47.042;15.160;2022-09-03T15:10:19;27.10;84.60
14775;DHT22;7479;47.042;15.160;2022-09-03T15:15:18;26.80;85.30
14775;DHT22;7479;47.042;15.160;2022-09-03T15:20:29;26.60;86.30
14775;DHT22;7479;47.042;15.160;2022-09-03T15:25:32;27.70;85.20
14775;DHT22;7479;47.042;15.160;2022-09-03T15:30:35;27.10;84.30
14775;DHT22;7479;47.042;15.160;2022-09-03T15:35:44;26.60;86.00
14775;DHT22;7479;47.042;15.160;2022-09-03T15:40:50;26.40;87.10
14775;DHT22;7479;47.042;15.160;2022-09-03T15:45:51;26.10;88.20
14775;DHT22;7479;47.042;15.160;2022-09-03T15:50:54;26.00;88.50
14775;DHT22;7479;47.042;15.160;2022-09-03T15:56:02;26.00;89.20
14775;DHT22;7479;47.042;15.160;2022-09-03T16:01:10;26.20;89.50
14775;DHT22;7479;47.042;15.160;2022-09-03T16:06:22;26.30;90.30
14775;DHT22;7479;47.042;15.160;2022-09-03T16:11:23;26.00;90.70
14775;DHT22;7479;47.042;15.160;2022-09-03T16:16:25;25.70;91.30
14775;DHT22;7479;47.042;15.160;2022-09-03T16:21:27;25.40;91.60
14775;DHT22;7479;47.042;15.160;2022-09-03T16:26:28;26.00;91.20
14775;DHT22;7479;47.042;15.160;2022-09-03T16:31:34;25.40;92.00
14775;DHT22;7479;47.042;15.160;2022-09-03T16:36:44;24.90;92.90
14775;DHT22;7479;47.042;15.160;2022-09-03T16:41:46;24.50;93.60
14775;DHT22;7479;47.042;15.160;2022-09-03T16:46:49;24.30;94.00
14775;DHT22;7479;47.042;15.160;2022-09-03T16:51:52;24.10;94.50
14775;DHT22;7479;47.042;15.160;2022-09-03T16:56:54;23.90;95.10
14775;DHT22;7479;47.042;15.160;2022-09-03T17:02:00;23.70;95.20
14775;DHT22;7479;47.042;15.160;2022-09-03T17:12:59;23.30;96.00
14775;DHT22;7479;47.042;15.160;2022-09-03T17:18:08;23.20;96.40
14775;DHT22;7479;47.042;15.160;2022-09-03T17:23:10;23.00;96.80
14775;DHT22;7479;47.042;15.160;2022-09-03T17:28:23;23.00;97.00
14775;DHT22;7479;47.042;15.160;2022-09-03T17:33:38;23.00;97.10
14775;DHT22;7479;47.042;15.160;2022-09-03T17:39:17;22.80;97.60
14775;DHT22;7479;47.042;15.160;2022-09-03T17:44:27;22.80;98.30
14775;DHT22;7479;47.042;15.160;2022-09-03T17:49:28;22.70;99.00
14775;DHT22;7479;47.042;15.160;2022-09-03T17:54:34;22.60;99.60
14775;DHT22;7479;47.042;15.160;2022-09-03T17:59:37;22.50;99.90
14775;DHT22;7479;47.042;15.160;2022-09-03T18:04:43;22.40;99.90
14775;DHT22;7479;47.042;15.160;2022-09-03T18:09:41;22.10;99.90
14775;DHT22;7479;47.042;15.160;2022-09-03T18:14:45;21.90;99.90
14775;DHT22;7479;47.042;15.160;2022-09-03T18:19:46;21.80;99.90
14775;DHT22;7479;47.042;15.160;2022-09-03T18:24:59;21.60;99.90
14775;DHT22;7479;47.042;15.160;2022-09-03T18:30:14;21.50;99.90
14775;DHT22;7479;47.042;15.160;2022-09-03T18:35:28;21.40;99.90
14775;DHT22;7479;47.042;15.160;2022-09-03T18:40:46;21.30;99.90
